Time;durP1;ratioP1;P1;durP2;ratioP2;P2;SDS_P1;SDS_P2;PMS_P1;PMS_P2;Temp;Humidity;BMP_temperature;BMP_pressure;BME280_temperature;BME280_humidity;BME280_pressure;Samples;Min_cycle;Max_cycle;Signal;HPM_P1;HPM_P2
2023/11/23 00:24:20;;;;;;;25.20;12.80;;;;;;;0.84;66.82;100569.46;676564;1262;126941;-78
2023/11/23 00:39:57;;;;;;;24.70;12.70;;;;;;;0.66;67.04;100530.43;677787;1262;140688;-79
2023/11/23 00:55:36;;;;;;;34.10;17.00;;;;;;;0.67;67.84;100474.77;678604;1261;140756;-78
2023/11/23 01:11:14;;;;;;;34.90;15.10;;;;;;;0.33;69.39;100403.96;678965;1260;140897;-78
2023/11/23 01:26:51;;;;;;;41.80;15.50;;;;;;;0.29;70.84;100404.98;679215;1260;139444;-78
2023/11/23 01:42:28;;;;;;;47.50;18.40;;;;;;;0.40;71.18;100369.27;678246;1260;140805;-78
2023/11/23 01:58:06;;;;;;;;;;;;;;;0.40;71.67;100309.23;676480;1260;139434;-78
2023/11/23 02:13:43;;;;;;;50.10;19.00;;;;;;;0.33;73.38;100236.56;678941;1257;125527;-79
2023/11/23 02:29:22;;;;;;;50.20;19.20;;;;;;;0.06;77.89;100172.23;680588;1263;140625;-79
2023/11/23 02:44:59;;;;;;;57.60;23.30;;;;;;;-0.08;84.08;100112.55;676828;1260;139686;-79
2023/11/23 03:00:36;;;;;;;80.20;29.00;;;;;;;-0.12;89.17;100058.26;679712;1263;140759;-79
2023/11/23 03:16:13;;;;;;;100.50;36.60;;;;;;;-0.20;93.87;99998.77;681555;1262;140948;-79
2023/11/23 03:31:50;;;;;;;;;;;;;;;-0.23;96.63;99916.77;677747;1265;140564;-79
2023/11/23 03:47:27;;;;;;;75.00;30.50;;;;;;;-0.19;98.00;99866.88;675248;1263;126318;-79
2023/11/23 04:03:05;;;;;;;69.30;28.70;;;;;;;0.19;98.87;99806.32;673591;1262;10136771;-78
2023/11/23 04:18:42;;;;;;;58.40;24.80;;;;;;;0.49;98.82;99785.96;681056;1262;140206;-79
2023/11/23 04:34:19;;;;;;;;;;;;;;;0.79;99.27;99749.07;679569;1262;140514;-80
2023/11/23 04:49:56;;;;;;;36.60;16.90;;;;;;;1.03;99.83;99696.93;682202;1260;126907;-83
2023/11/23 05:05:33;;;;;;;;;;;;;;;1.21;100.00;99652.82;680029;1263;139832;-82
2023/11/23 05:21:10;;;;;;;33.50;15.40;;;;;;;1.41;100.00;99625.12;677859;1265;127801;-81
2023/11/23 05:36:47;;;;;;;30.10;13.80;;;;;;;2.13;100.00;99574.27;676184;1263;140496;-82
2023/11/23 05:52:24;;;;;;;25.80;12.40;;;;;;;2.43;99.77;99541.42;675687;1263;139797;-81
2023/11/23 06:08:01;;;;;;;29.00;12.90;;;;;;;2.53;99.99;99528.16;675601;1263;139035;-82
2023/11/23 06:23:38;;;;;;;152.10;65.90;;;;;;;2.80;99.97;99482.50;674359;1263;140530;-81
2023/11/23 06:39:23;;;;;;;41.30;19.30;;;;;;;3.07;99.43;99462.20;673089;1261;139579;-81
2023/11/23 06:55:01;;;;;;;32.60;17.20;;;;;;;3.21;99.52;99425.42;675173;1260;139633;-81
2023/11/23 07:10:40;;;;;;;28.70;14.10;;;;;;;3.43;99.34;99393.62;676138;1257;139322;-79
2023/11/23 07:26:18;;;;;;;32.60;17.40;;;;;;;3.53;99.69;99368.04;674317;1262;139289;-82
2023/11/23 07:41:54;;;;;;;33.00;17.20;;;;;;;3.73;100.00;99333.66;680024;1264;140733;-82
2023/11/23 07:57:32;;;;;;;20.40;11.90;;;;;;;3.71;100.00;99291.42;675571;1263;139147;-82
2023/11/23 08:13:10;;;;;;;57.60;26.10;;;;;;;3.67;100.00;99264.45;677530;1263;139729;-81
2023/11/23 08:28:47;;;;;;;43.00;22.10;;;;;;;3.73;100.00;99217.11;671291;1265;139096;-83
2023/11/23 08:44:25;;;;;;;64.10;28.70;;;;;;;4.07;100.00;99203.25;678064;1262;140206;-83
2023/11/23 09:00:02;;;;;;;40.40;19.20;;;;;;;4.39;100.00;99168.18;672147;1266;141255;-82
2023/11/23 09:15:41;;;;;;;38.90;17.10;;;;;;;4.54;100.00;99131.86;675075;1263;139487;-82
2023/11/23 09:31:20;;;;;;;40.90;18.50;;;;;;;4.69;100.00;99144.19;671328;1263;139565;-82
2023/11/23 09:46:57;;;;;;;41.40;20.10;;;;;;;4.86;100.00;99111.09;673840;1263;139772;-81
2023/11/23 10:02:35;;;;;;;41.30;18.90;;;;;;;5.06;100.00;99084.82;674527;1257;139212;-81
2023/11/23 10:18:12;;;;;;;39.90;17.60;;;;;;;5.26;100.00;99042.79;673989;1262;139134;-83
2023/11/23 10:33:49;;;;;;;36.80;17.00;;;;;;;5.51;100.00;99006.27;672736;1263;139086;-83
2023/11/23 10:49:27;;;;;;;33.70;16.30;;;;;;;5.94;100.00;98959.27;675880;1272;139351;-83
2023/11/23 11:05:04;;;;;;;34.80;16.20;;;;;;;6.65;100.00;98914.13;672491;1271;139221;-82
2023/11/23 11:20:41;;;;;;;36.90;18.40;;;;;;;6.96;100.00;98893.56;674087;1268;140099;-83
2023/11/23 11:36:18;;;;;;;38.50;21.00;;;;;;;7.20;100.00;98841.30;672764;1257;140935;-83
2023/11/23 11:51:55;;;;;;;33.00;17.80;;;;;;;7.58;100.00;98798.02;675819;1264;139075;-84
2023/11/23 12:07:35;;;;;;;29.00;14.40;;;;;;;7.77;100.00;98739.07;676209;1263;139334;-83
2023/11/23 12:23:12;;;;;;;26.90;14.70;;;;;;;8.01;100.00;98722.55;677568;1264;139649;-82
2023/11/23 12:38:51;;;;;;;25.00;13.90;;;;;;;8.26;100.00;98692.14;677487;1258;138067;-84
2023/11/23 12:54:30;;;;;;;47.00;26.20;;;;;;;8.41;100.00;98648.78;675383;1260;139784;-83
2023/11/23 13:10:06;;;;;;;23.90;13.90;;;;;;;8.63;100.00;98599.60;677895;1260;140011;-84
2023/11/23 13:25:45;;;;;;;18.60;11.40;;;;;;;9.02;100.00;98546.05;676049;1260;140182;-86
2023/11/23 13:41:22;;;;;;;17.00;10.90;;;;;;;9.10;100.00;98513.66;674193;1263;139399;-85
2023/11/23 13:57:00;;;;;;;17.00;10.90;;;;;;;9.29;100.00;98457.73;673344;1263;140538;-83
2023/11/23 14:12:37;;;;;;;22.20;12.60;;;;;;;8.89;100.00;98420.39;672505;1262;139869;-83
2023/11/23 14:28:15;;;;;;;15.20;9.40;;;;;;;8.74;100.00;98398.73;674670;1262;140021;-82
2023/11/23 14:43:56;;;;;;;17.60;12.30;;;;;;;8.70;100.00;98352.88;674690;1263;139253;-83
2023/11/23 14:59:35;;;;;;;17.80;11.90;;;;;;;8.71;100.00;98308.73;677106;1273;139844;-84
2023/11/23 15:15:13;;;;;;;43.40;21.80;;;;;;;8.66;100.00;98277.96;679423;1260;140032;-83
2023/11/23 15:30:50;;;;;;;17.20;10.80;;;;;;;8.78;100.00;98233.25;675429;1263;139895;-84
2023/11/23 15:46:28;;;;;;;17.90;10.20;;;;;;;9.09;100.00;98196.70;680110;1262;139259;-85
2023/11/23 16:02:07;;;;;;;20.90;12.90;;;;;;;9.28;100.00;98173.25;667044;1258;10196618;-83
2023/11/23 16:17:51;;;;;;;16.40;9.90;;;;;;;9.47;100.00;98142.52;674831;1261;140621;-84
2023/11/23 16:33:28;;;;;;;27.30;14.80;;;;;;;9.57;100.00;98105.00;671116;1262;22644;-82
2023/11/23 17:04:17;;;;;;;21.00;9.20;;;;;;;9.95;100.00;98133.52;654635;1285;10225750;-83
2023/11/23 17:19:56;;;;;;;;;;;;;;;9.83;100.00;98094.03;666752;1289;22543;-84
2023/11/23 17:35:33;;;;;;;23.40;11.90;;;;;;;9.82;100.00;98047.61;671554;1266;124895;-84
2023/11/23 17:51:13;;;;;;;16.20;8.20;;;;;;;9.63;100.00;98012.55;670359;1279;139051;-80
2023/11/23 18:06:50;;;;;;;;;;;;;;;9.56;100.00;97995.98;673315;1266;139140;-83
2023/11/23 18:22:27;;;;;;;19.00;10.20;;;;;;;9.48;100.00;97982.95;677369;1263;124774;-82
2023/11/23 18:38:16;;;;;;;8.80;4.00;;;;;;;9.34;100.00;97956.60;678517;1266;139113;-83
2023/11/23 18:53:53;;;;;;;8.40;4.60;;;;;;;9.19;100.00;97957.58;675486;1266;138795;-82
2023/11/23 19:09:29;;;;;;;8.60;4.00;;;;;;;9.06;100.00;97960.69;677740;1266;138152;-81
2023/11/23 19:25:09;;;;;;;25.50;10.20;;;;;;;9.06;100.00;97888.07;675608;1264;138788;-83
2023/11/23 19:40:46;;;;;;;37.10;15.30;;;;;;;8.93;100.00;97845.03;673584;1266;140070;-82
2023/11/23 19:56:24;;;;;;;22.00;9.00;;;;;;;8.93;100.00;97826.97;673429;1266;139262;-83
2023/11/23 20:12:01;;;;;;;13.90;5.40;;;;;;;8.81;100.00;97767.88;673751;1266;139072;-83
2023/11/23 20:27:38;;;;;;;20.50;8.50;;;;;;;8.81;100.00;97786.46;673639;1266;139181;-83
2023/11/23 20:43:15;;;;;;;21.80;7.20;;;;;;;8.74;100.00;97794.18;674226;1264;139237;-82
2023/11/23 20:58:58;;;;;;;19.80;7.00;;;;;;;8.68;100.00;97769.71;676684;1257;139384;-84
2023/11/23 21:14:35;;;;;;;15.10;5.90;;;;;;;8.66;100.00;97745.20;679502;1260;139208;-83
2023/11/23 21:30:15;;;;;;;23.60;10.10;;;;;;;8.44;100.00;97744.13;680581;1258;139162;-83
2023/11/23 21:45:52;;;;;;;15.10;4.40;;;;;;;8.34;100.00;97751.67;679275;1263;139068;-82
2023/11/23 22:01:32;;;;;;;14.70;5.40;;;;;;;8.15;99.98;97733.52;675757;1260;138583;-81
2023/11/23 22:17:09;;;;;;;15.90;5.80;;;;;;;8.03;99.70;97744.59;677616;1260;138969;-82
2023/11/23 22:32:50;;;;;;;12.10;3.60;;;;;;;7.93;97.72;97749.16;677730;1261;139290;-81
2023/11/23 22:48:27;;;;;;;3.20;1.70;;;;;;;7.65;95.98;97709.55;678016;1257;140421;-81
2023/11/23 23:04:09;;;;;;;23.40;4.80;;;;;;;7.31;96.31;97701.50;679576;1260;138141;-82
2023/11/23 23:19:46;;;;;;;23.30;5.90;;;;;;;7.17;96.57;97719.39;678110;1256;138919;-81
2023/11/23 23:35:16;;;;;;;6.10;2.00;;;;;;;7.70;93.28;97726.31;672811;1260;141083;-84
2023/11/23 23:50:54;;;;;;;35.80;7.80;;;;;;;7.81;91.08;97714.46;677310;1257;137767;-84
